Hovedside
METAR-TAF:

METAR-TAF

Lufthavner :

Tammerfors, Finland

Tammerfors-Birkala lufthavn

breddegrad: 61-25N, lengdegrad: 023-35E, høyde over havet: 112 m

Gjeldene værobservasjon

Denne rapporten ble laget for 29 minutter siden, klokken 20:20 UTC
Vind 13 kt fra Vest-nordvest
Temperatur 5°C
Luftfuktighet 52%
Trykk 1008 hPa
Sikt 10 km eller mer
ingen skyer under 1500 m og ingen bygeskyer

METAR: EFTP 262020Z AUTO 30013KT CAVOK 05/M04 Q1008

Tid: 23:49 (20:49 UTC)

Varsel

Denne rapporten ble laget for 24 minutter siden, klokken 20:25 UTC
Varsel gyldig fra 26. klokken 21 UTC til 27. klokken 21 UTC
Vind 13 kt fra Vest-nordvest
Sikt 10 km eller mer
ingen skyer under 1500 m og ingen bygeskyer
Blir
fra 27. klokken 09 UTC til 27. klokken 11 UTC
Vind 11 kt fra Vest-sørvest
Blir
fra 27. klokken 13 UTC til 27. klokken 15 UTC
Vind 18 kt fra Vest-nordvest med vindkast opp mot 28 kt

TAF: EFTP 262025Z 2621/2721 30013KT CAVOK BECMG 2709/2711 24011KT BECMG 2713/2715 29018G28KT

Værobservasjoner og værvarsel for over 4000 flyplasser (METAR- og TAF-rapporter).

Tilgjengelige stasjoner er representert av de røde og gule prikkene på kartet.

Hold musepekeren over prikken for å se navnet på stasjonen.

Klikk så for å se værobservasjoner og -varsler.

For å forandre kartet kan du klikke på den grønne knappen med svart kryss for å zoome inn, på den grønne knappen med strek for å zoome ut, eller på de grønne pilene for å se tilstøtende kart.


METAR-TAF: